createdAt,value
2023-02-12T00:01:26.347Z,57.30
2023-02-12T00:03:55.261Z,57.20
2023-02-12T00:06:24.249Z,58.50
2023-02-12T00:08:54.231Z,60.20
2023-02-12T00:11:25.819Z,59.80
2023-02-12T00:13:55.292Z,58.20
2023-02-12T00:16:29.028Z,57.10
2023-02-12T00:18:59.043Z,57.90
2023-02-12T00:21:29.021Z,53.10
2023-02-12T00:23:57.869Z,53.90
2023-02-12T00:26:26.093Z,56.80
2023-02-12T00:28:55.093Z,53.40
2023-02-12T00:31:26.980Z,53.70
2023-02-12T00:33:59.441Z,53.10
2023-02-12T00:36:29.544Z,55.80
2023-02-12T00:38:58.305Z,53.20
2023-02-12T00:41:27.364Z,50.90
2023-02-12T00:43:55.973Z,56.20
2023-02-12T00:46:24.203Z,55.30
2023-02-12T00:48:52.547Z,55.20
2023-02-12T00:51:21.973Z,58.20
2023-02-12T00:53:50.085Z,54.80
2023-02-12T00:56:18.143Z,55.20
2023-02-12T00:58:48.958Z,57.00
2023-02-12T01:01:18.012Z,54.10
2023-02-12T01:03:46.098Z,57.50
2023-02-12T01:06:14.222Z,54.30
2023-02-12T01:08:42.252Z,54.80
2023-02-12T01:11:13.110Z,55.70
2023-02-12T01:13:41.410Z,52.50
2023-02-12T01:16:16.297Z,55.50
2023-02-12T01:18:45.884Z,54.00
2023-02-12T01:21:19.485Z,56.30
2023-02-12T01:23:48.605Z,60.50
2023-02-12T01:26:18.127Z,62.00
2023-02-12T01:28:51.208Z,64.40
2023-02-12T01:31:23.160Z,64.10
2023-02-12T01:33:54.410Z,69.40
2023-02-12T01:36:26.332Z,66.70
2023-02-12T01:38:56.126Z,66.40
2023-02-12T01:41:29.675Z,64.90
2023-02-12T01:44:09.944Z,65.30
2023-02-12T01:46:38.678Z,62.90
2023-02-12T01:49:12.681Z,55.50
2023-02-12T01:51:43.510Z,54.00
2023-02-12T01:54:15.203Z,50.50
2023-02-12T01:56:43.820Z,50.60
2023-02-12T01:59:13.110Z,49.20
2023-02-12T02:01:41.357Z,50.20
2023-02-12T02:04:14.138Z,51.20
2023-02-12T02:07:05.543Z,53.50
2023-02-12T02:09:36.681Z,53.80
2023-02-12T02:12:24.739Z,55.10
2023-02-12T02:14:57.104Z,50.60
2023-02-12T02:17:37.424Z,54.70
2023-02-12T02:20:20.584Z,54.80
2023-02-12T02:23:10.078Z,56.60
2023-02-12T02:26:05.887Z,54.10
2023-02-12T02:28:44.643Z,48.80
2023-02-12T02:31:17.912Z,48.40
2023-02-12T02:33:59.657Z,49.30
2023-02-12T02:36:32.445Z,47.80
2023-02-12T02:39:06.624Z,48.70
2023-02-12T02:41:59.601Z,50.00
2023-02-12T02:44:37.382Z,47.00
2023-02-12T02:47:10.214Z,46.90
2023-02-12T02:49:56.359Z,49.50
2023-02-12T02:52:37.453Z,50.30
2023-02-12T02:55:12.460Z,54.80
2023-02-12T02:58:12.210Z,49.70
2023-02-12T03:04:46.563Z,48.70
2023-02-12T03:09:59.358Z,44.70
2023-02-12T03:12:44.982Z,47.90
2023-02-12T03:15:27.106Z,47.60
2023-02-12T03:17:58.823Z,51.10
2023-02-12T03:20:33.934Z,48.40
2023-02-12T03:23:14.532Z,50.00
2023-02-12T03:25:47.300Z,48.60
2023-02-12T03:28:20.820Z,50.60
2023-02-12T03:30:59.958Z,52.20
2023-02-12T03:33:34.034Z,51.90
2023-02-12T03:36:10.989Z,51.10
2023-02-12T03:38:46.255Z,49.30
2023-02-12T03:41:31.508Z,50.70
2023-02-12T03:44:21.318Z,54.70
2023-02-12T03:47:09.472Z,48.70
2023-02-12T03:50:00.858Z,50.40
2023-02-12T03:52:30.491Z,50.20
2023-02-12T03:54:59.074Z,49.50
2023-02-12T03:57:34.235Z,50.30
2023-02-12T04:00:08.929Z,50.30
2023-02-12T04:02:43.495Z,50.60
2023-02-12T04:05:24.141Z,51.40
2023-02-12T04:07:54.146Z,52.50
2023-02-12T04:10:45.699Z,48.70
2023-02-12T04:13:26.448Z,49.40
2023-02-12T04:16:12.505Z,48.60
2023-02-12T04:18:52.115Z,47.60
2023-02-12T04:21:48.033Z,50.30
2023-02-12T04:24:24.562Z,52.70
2023-02-12T04:29:56.206Z,51.90
2023-02-12T04:32:38.300Z,52.00
2023-02-12T04:35:27.995Z,55.50
2023-02-12T04:38:18.647Z,54.10
2023-02-12T04:40:48.188Z,61.10
2023-02-12T04:43:30.136Z,62.20
2023-02-12T04:45:58.420Z,58.10
2023-02-12T04:48:26.752Z,64.80
2023-02-12T04:50:54.708Z,62.90
2023-02-12T04:53:22.791Z,60.90
2023-02-12T04:55:50.761Z,59.10
2023-02-12T04:58:18.858Z,58.40
2023-02-12T05:00:46.894Z,56.90
2023-02-12T05:03:14.824Z,56.20
2023-02-12T05:05:42.839Z,57.10
2023-02-12T05:08:10.877Z,56.80
2023-02-12T05:10:38.921Z,55.30
2023-02-12T05:13:08.020Z,53.80
2023-02-12T05:15:38.474Z,56.70
2023-02-12T05:18:06.578Z,54.50
2023-02-12T05:20:34.438Z,52.80
2023-02-12T05:23:02.472Z,51.50
2023-02-12T05:25:32.707Z,57.40
2023-02-12T05:28:00.706Z,54.80
2023-02-12T05:30:28.688Z,54.60
2023-02-12T05:33:02.621Z,58.60
2023-02-12T05:35:30.526Z,57.50
2023-02-12T05:37:58.496Z,56.70
2023-02-12T05:40:26.637Z,55.60
2023-02-12T05:42:54.645Z,57.40
2023-02-12T05:45:27.874Z,54.70
2023-02-12T05:47:56.559Z,60.60
2023-02-12T05:50:24.882Z,56.20
2023-02-12T05:53:01.447Z,58.30
2023-02-12T05:55:29.411Z,59.80
2023-02-12T05:57:57.336Z,59.30
2023-02-12T06:00:25.488Z,62.10
2023-02-12T06:02:53.654Z,61.60
2023-02-12T06:05:21.678Z,62.40
2023-02-12T06:07:49.693Z,61.40
2023-02-12T06:10:17.853Z,59.60
2023-02-12T06:12:46.293Z,61.60
2023-02-12T06:15:14.267Z,61.90
2023-02-12T06:17:42.167Z,58.50
2023-02-12T06:20:10.310Z,58.90
2023-02-12T06:22:38.486Z,59.10
2023-02-12T06:25:06.963Z,61.20
2023-02-12T06:27:34.935Z,59.20
2023-02-12T06:30:03.211Z,61.30
2023-02-12T06:32:31.259Z,59.50
2023-02-12T06:34:59.282Z,64.60
2023-02-12T06:37:27.340Z,60.60
2023-02-12T06:39:55.659Z,63.00
2023-02-12T06:42:23.532Z,63.10
2023-02-12T06:44:53.041Z,65.30
2023-02-12T06:47:21.686Z,64.70
2023-02-12T06:49:49.711Z,60.30
2023-02-12T06:52:17.703Z,63.00
2023-02-12T06:54:45.563Z,61.50
2023-02-12T06:57:13.623Z,61.90
2023-02-12T06:59:41.566Z,61.50
2023-02-12T07:02:11.458Z,62.40
2023-02-12T07:04:39.502Z,60.70
2023-02-12T07:07:07.644Z,60.00
2023-02-12T07:09:35.815Z,63.30
2023-02-12T07:12:04.541Z,64.10
2023-02-12T07:14:34.205Z,62.70
2023-02-12T07:17:04.021Z,61.10
2023-02-12T07:19:32.473Z,62.50
2023-02-12T07:22:00.833Z,60.10
2023-02-12T07:24:28.843Z,57.80
2023-02-12T07:26:56.880Z,54.90
2023-02-12T07:29:25.166Z,59.90
2023-02-12T07:31:53.415Z,58.50
2023-02-12T07:34:21.404Z,61.10
2023-02-12T07:36:49.475Z,65.00
2023-02-12T07:39:17.461Z,61.10
2023-02-12T07:41:45.511Z,60.50
2023-02-12T07:44:13.791Z,60.50
2023-02-12T07:46:49.427Z,66.70
2023-02-12T07:49:20.304Z,64.10
2023-02-12T07:51:51.136Z,62.90
2023-02-12T07:54:19.153Z,66.00
2023-02-12T07:56:47.463Z,61.90
2023-02-12T07:59:18.399Z,62.80
2023-02-12T08:01:51.683Z,63.40
2023-02-12T08:04:23.051Z,63.90
2023-02-12T08:06:54.116Z,59.30
2023-02-12T08:09:24.783Z,55.60
2023-02-12T08:11:53.383Z,57.10
2023-02-12T08:14:22.270Z,55.00
2023-02-12T08:16:51.034Z,53.60
2023-02-12T08:19:24.756Z,52.00
2023-02-12T08:21:54.813Z,54.20
2023-02-12T08:24:23.551Z,56.20
2023-02-12T08:26:52.008Z,50.90
2023-02-12T08:29:22.843Z,53.90
2023-02-12T08:31:56.378Z,52.20
2023-02-12T08:34:31.782Z,51.60
2023-02-12T08:37:00.387Z,48.20
2023-02-12T08:39:30.303Z,47.30
2023-02-12T08:41:59.976Z,39.10
2023-02-12T08:44:28.538Z,42.00
2023-02-12T08:46:56.713Z,40.50
2023-02-12T08:49:29.481Z,39.30
2023-02-12T08:51:59.878Z,40.30
2023-02-12T08:54:29.791Z,41.00
2023-02-12T08:57:00.849Z,40.60
2023-02-12T08:59:29.697Z,43.00
2023-02-12T09:01:57.623Z,44.40
2023-02-12T09:04:28.267Z,48.20
2023-02-12T09:06:56.868Z,45.40
2023-02-12T09:09:24.841Z,52.20
2023-02-12T09:11:53.012Z,56.30
2023-02-12T09:14:24.270Z,50.10
2023-02-12T09:16:57.283Z,39.70
2023-02-12T09:19:25.633Z,44.20
2023-02-12T09:21:56.652Z,44.00
2023-02-12T09:24:27.965Z,40.40
2023-02-12T09:26:56.708Z,39.30
2023-02-12T09:29:24.720Z,36.40
2023-02-12T09:31:52.993Z,35.60
2023-02-12T09:34:21.358Z,34.50
2023-02-12T09:36:49.653Z,38.90
2023-02-12T09:39:17.677Z,39.40
2023-02-12T09:41:45.670Z,35.60
2023-02-12T09:44:35.025Z,43.00
2023-02-12T09:47:17.420Z,41.00
2023-02-12T09:50:14.927Z,43.90
2023-02-12T09:52:43.231Z,44.60
2023-02-12T09:55:19.586Z,45.50
2023-02-12T09:57:47.816Z,46.20
2023-02-12T10:00:28.065Z,44.60
2023-02-12T10:02:56.261Z,45.20
2023-02-12T10:05:29.352Z,47.30
2023-02-12T10:08:22.156Z,47.00
2023-02-12T10:10:52.190Z,47.90
2023-02-12T10:13:38.693Z,46.60
2023-02-12T10:16:26.948Z,44.70
2023-02-12T10:19:06.843Z,45.60
2023-02-12T10:21:59.661Z,43.50
2023-02-12T10:24:57.820Z,44.10
2023-02-12T10:27:43.596Z,43.90
2023-02-12T10:30:31.380Z,42.80
2023-02-12T10:33:06.964Z,45.10
2023-02-12T10:35:35.647Z,45.00
2023-02-12T10:38:29.591Z,44.40
2023-02-12T10:41:01.779Z,44.40
2023-02-12T10:43:30.664Z,45.20
2023-02-12T10:45:58.899Z,47.50
2023-02-12T10:48:38.886Z,45.70
2023-02-12T10:51:09.657Z,45.10
2023-02-12T10:53:43.537Z,44.60
2023-02-12T10:56:26.071Z,48.40
2023-02-12T10:58:59.301Z,46.10
2023-02-12T11:01:38.452Z,46.20
2023-02-12T11:04:27.936Z,46.10
2023-02-12T11:07:07.516Z,44.70
2023-02-12T11:09:46.293Z,44.70
2023-02-12T11:12:40.982Z,42.90
2023-02-12T11:15:26.532Z,46.70
2023-02-12T11:18:05.127Z,46.10
2023-02-12T11:20:42.286Z,46.00
2023-02-12T11:23:32.652Z,45.00
2023-02-12T11:26:07.337Z,42.50
2023-02-12T11:28:37.125Z,41.00
2023-02-12T11:31:33.310Z,38.30
2023-02-12T11:34:04.527Z,38.70
2023-02-12T11:36:46.120Z,36.90
2023-02-12T11:39:39.073Z,37.00
2023-02-12T11:42:30.944Z,36.60
2023-02-12T11:45:00.262Z,34.90
2023-02-12T11:47:35.372Z,35.50
2023-02-12T11:50:09.233Z,35.80
2023-02-12T11:52:40.848Z,36.20
2023-02-12T11:55:22.558Z,36.80
2023-02-12T11:58:03.189Z,35.50
2023-02-12T12:00:45.620Z,36.40
2023-02-12T12:03:21.370Z,35.80
2023-02-12T12:05:52.820Z,35.40
2023-02-12T12:08:27.897Z,36.00
2023-02-12T12:11:18.962Z,35.70
2023-02-12T12:13:57.659Z,35.10
2023-02-12T12:16:57.028Z,35.60
2023-02-12T12:19:51.654Z,35.20
2023-02-12T12:22:41.608Z,35.10
2023-02-12T12:25:41.482Z,37.10
2023-02-12T12:28:18.880Z,33.80
2023-02-12T12:31:08.865Z,34.20
2023-02-12T12:33:51.679Z,31.60
2023-02-12T12:36:51.875Z,34.90
2023-02-12T12:39:45.796Z,34.80
2023-02-12T12:42:31.951Z,34.30
2023-02-12T12:45:17.429Z,36.00
2023-02-12T12:48:22.654Z,35.20
2023-02-12T12:51:06.007Z,34.90
2023-02-12T12:53:52.758Z,34.00
2023-02-12T12:56:27.057Z,33.00
2023-02-12T12:59:13.806Z,35.10
2023-02-12T13:04:41.819Z,33.50
2023-02-12T13:07:29.013Z,37.40
2023-02-12T13:10:08.354Z,37.40
2023-02-12T13:12:49.538Z,36.20
2023-02-12T13:15:28.447Z,36.00
2023-02-12T13:18:06.888Z,33.60
2023-02-12T13:21:03.401Z,35.90
2023-02-12T13:23:54.641Z,35.30
2023-02-12T13:26:40.826Z,34.80
2023-02-12T13:29:34.901Z,34.90
2023-02-12T13:32:22.501Z,35.90
2023-02-12T13:34:53.139Z,34.70
2023-02-12T13:37:35.443Z,36.10
2023-02-12T13:40:14.179Z,34.90
2023-02-12T13:42:43.179Z,37.40
2023-02-12T13:45:20.413Z,33.40
2023-02-12T13:48:06.415Z,37.00
2023-02-12T13:51:01.420Z,34.10
2023-02-12T13:53:48.208Z,32.60
2023-02-12T13:56:42.357Z,31.60
2023-02-12T13:59:51.068Z,32.50
2023-02-12T14:02:38.971Z,32.70
2023-02-12T14:05:36.923Z,36.70
2023-02-12T14:08:06.598Z,35.50
2023-02-12T14:10:41.257Z,34.10
2023-02-12T14:13:34.210Z,34.90
2023-02-12T14:16:39.556Z,34.90
2023-02-12T14:19:41.694Z,33.60
2023-02-12T14:22:29.822Z,33.10
2023-02-12T14:24:59.295Z,32.80
2023-02-12T14:27:33.297Z,34.70
2023-02-12T14:30:04.344Z,32.70
2023-02-12T14:32:44.909Z,34.50
2023-02-12T14:35:32.137Z,30.90
2023-02-12T14:40:47.020Z,29.80
2023-02-12T14:43:57.146Z,32.50
2023-02-12T14:46:25.211Z,30.30
2023-02-12T14:49:05.980Z,31.10
2023-02-12T14:51:53.503Z,33.40
2023-02-12T14:54:30.545Z,30.60
2023-02-12T14:57:02.959Z,32.50
2023-02-12T14:59:39.507Z,32.00
2023-02-12T15:04:41.372Z,41.60
2023-02-12T15:07:17.215Z,34.70
2023-02-12T15:09:52.374Z,38.50
2023-02-12T15:12:38.346Z,31.90
2023-02-12T15:15:34.790Z,29.10
2023-02-12T15:18:20.634Z,30.80
2023-02-12T15:20:55.237Z,31.80
2023-02-12T15:24:08.023Z,32.80
2023-02-12T15:26:47.386Z,33.20
2023-02-12T15:29:55.849Z,33.80
2023-02-12T15:32:27.113Z,34.00
2023-02-12T15:34:56.186Z,34.40
2023-02-12T15:37:30.784Z,35.80
2023-02-12T15:40:01.639Z,32.60
2023-02-12T15:42:33.831Z,36.30
2023-02-12T15:45:25.937Z,34.40
2023-02-12T15:48:00.969Z,36.40
2023-02-12T15:50:31.277Z,38.20
2023-02-12T15:52:59.669Z,40.30
2023-02-12T15:55:33.304Z,38.20
2023-02-12T15:58:03.382Z,41.90
2023-02-12T16:00:43.318Z,44.50
2023-02-12T16:03:28.969Z,39.70
2023-02-12T16:06:03.972Z,40.50
2023-02-12T16:08:34.139Z,40.40
2023-02-12T16:11:13.718Z,41.10
2023-02-12T16:13:51.826Z,41.60
2023-02-12T16:16:39.935Z,40.60
2023-02-12T16:19:22.531Z,39.80
2023-02-12T16:21:56.565Z,38.60
2023-02-12T16:24:33.561Z,36.60
2023-02-12T16:27:09.588Z,38.60
2023-02-12T16:29:45.945Z,35.80
2023-02-12T16:32:36.256Z,37.60
2023-02-12T16:35:33.866Z,38.10
2023-02-12T16:40:35.282Z,36.80
2023-02-12T16:43:23.154Z,40.60
2023-02-12T16:45:59.804Z,37.60
2023-02-12T16:48:28.169Z,37.40
2023-02-12T16:50:59.714Z,39.60
2023-02-12T16:53:30.700Z,39.10
2023-02-12T16:56:00.599Z,36.10
2023-02-12T16:58:28.732Z,41.50
2023-02-12T17:00:58.927Z,39.40
2023-02-12T17:03:27.112Z,39.60
2023-02-12T17:05:57.123Z,37.30
2023-02-12T17:08:25.636Z,38.10
2023-02-12T17:10:53.724Z,39.70
2023-02-12T17:13:21.848Z,40.40
2023-02-12T17:15:59.743Z,41.10
2023-02-12T17:18:28.695Z,41.00
2023-02-12T17:21:17.161Z,39.60
2023-02-12T17:23:45.228Z,40.30
2023-02-12T17:26:13.345Z,40.20
2023-02-12T17:28:41.555Z,48.90
2023-02-12T17:31:10.132Z,45.40
2023-02-12T17:33:39.513Z,49.20
2023-02-12T17:36:08.353Z,42.60
2023-02-12T17:38:36.779Z,41.70
2023-02-12T17:41:11.670Z,45.80
2023-02-12T17:43:39.748Z,43.30
2023-02-12T17:46:13.283Z,41.70
2023-02-12T17:48:41.353Z,42.90
2023-02-12T17:51:14.605Z,40.50
2023-02-12T17:53:43.036Z,39.60
2023-02-12T17:56:17.776Z,37.80
2023-02-12T17:58:46.915Z,40.70
2023-02-12T18:01:18.731Z,38.00
2023-02-12T18:03:47.650Z,38.60
2023-02-12T18:06:26.536Z,37.80
2023-02-12T18:08:56.622Z,37.20
2023-02-12T18:11:25.381Z,38.30
2023-02-12T18:13:55.856Z,38.60
2023-02-12T18:16:26.336Z,38.40
2023-02-12T18:18:55.087Z,37.30
2023-02-12T18:21:23.813Z,38.80
2023-02-12T18:23:54.075Z,38.30
2023-02-12T18:26:22.962Z,39.20
2023-02-12T18:28:51.258Z,36.80
2023-02-12T18:31:20.613Z,35.70
2023-02-12T18:33:49.074Z,39.10
2023-02-12T18:36:19.748Z,37.60
2023-02-12T18:38:49.481Z,36.90
2023-02-12T18:41:19.208Z,37.30
2023-02-12T18:43:47.970Z,36.70
2023-02-12T18:46:19.815Z,46.00
2023-02-12T18:48:49.149Z,34.40
2023-02-12T18:51:22.283Z,35.80
2023-02-12T18:54:01.945Z,36.40
2023-02-12T18:56:40.987Z,34.50
2023-02-12T18:59:11.754Z,35.40
2023-02-12T19:01:40.152Z,37.10
2023-02-12T19:04:10.936Z,32.60
2023-02-12T19:06:42.470Z,35.00
2023-02-12T19:09:12.439Z,36.20
2023-02-12T19:11:40.430Z,36.50
2023-02-12T19:14:08.342Z,35.20
2023-02-12T19:16:36.576Z,35.60
2023-02-12T19:19:04.738Z,34.70
2023-02-12T19:21:32.845Z,35.50
2023-02-12T19:24:03.236Z,37.50
2023-02-12T19:26:33.156Z,41.50
2023-02-12T19:29:02.811Z,37.60
2023-02-12T19:31:34.866Z,37.10
2023-02-12T19:34:06.878Z,38.90
2023-02-12T19:36:36.739Z,38.50
2023-02-12T19:39:06.152Z,38.40
2023-02-12T19:41:41.170Z,41.30
2023-02-12T19:44:12.664Z,38.90
2023-02-12T19:46:41.654Z,39.60
2023-02-12T19:49:15.810Z,40.60
2023-02-12T19:51:44.829Z,38.90
2023-02-12T19:54:14.927Z,42.40
2023-02-12T19:56:43.934Z,40.60
2023-02-12T19:59:17.499Z,40.00
2023-02-12T20:01:46.648Z,40.80
2023-02-12T20:04:19.410Z,41.20
2023-02-12T20:06:51.462Z,41.60
2023-02-12T20:09:21.661Z,41.60
2023-02-12T20:11:49.764Z,42.10
2023-02-12T20:14:18.155Z,42.50
2023-02-12T20:16:48.034Z,45.70
2023-02-12T20:19:23.364Z,45.20
2023-02-12T20:21:55.509Z,49.10
2023-02-12T20:24:30.114Z,48.10
2023-02-12T20:27:00.243Z,45.00
2023-02-12T20:29:29.010Z,43.30
2023-02-12T20:31:57.558Z,43.30
2023-02-12T20:34:26.528Z,40.80
2023-02-12T20:36:54.458Z,41.10
2023-02-12T20:39:23.033Z,39.40
2023-02-12T20:41:51.506Z,41.30
2023-02-12T20:44:22.116Z,40.40
2023-02-12T20:46:55.985Z,39.00
2023-02-12T20:49:26.146Z,41.60
2023-02-12T20:51:54.495Z,40.90
2023-02-12T20:54:22.945Z,40.70
2023-02-12T20:56:51.225Z,39.30
2023-02-12T20:59:20.353Z,40.60
2023-02-12T21:01:48.783Z,42.60
2023-02-12T21:04:18.577Z,40.40
2023-02-12T21:06:48.707Z,40.20
2023-02-12T21:09:17.478Z,39.50
2023-02-12T21:11:46.054Z,40.20
2023-02-12T21:14:23.878Z,39.70
2023-02-12T21:16:55.220Z,38.60
2023-02-12T21:19:23.859Z,40.80
2023-02-12T21:21:52.608Z,37.90
2023-02-12T21:24:26.046Z,37.30
2023-02-12T21:26:55.467Z,38.80
2023-02-12T21:29:23.595Z,41.10
2023-02-12T21:31:51.923Z,40.50
2023-02-12T21:34:22.584Z,40.60
2023-02-12T21:36:53.139Z,38.50
2023-02-12T21:39:27.563Z,41.30
2023-02-12T21:42:02.600Z,39.40
2023-02-12T21:44:35.474Z,39.60
2023-02-12T21:47:04.348Z,38.20
2023-02-12T21:49:32.594Z,37.10
2023-02-12T21:52:03.680Z,42.10
2023-02-12T21:54:33.145Z,45.40
2023-02-12T21:57:01.863Z,44.40
2023-02-12T21:59:40.000Z,47.80
2023-02-12T22:02:09.539Z,47.30
2023-02-12T22:04:37.551Z,42.70
2023-02-12T22:07:06.460Z,44.80
2023-02-12T22:09:35.718Z,45.10
2023-02-12T22:12:04.012Z,40.60
2023-02-12T22:14:32.073Z,40.70
2023-02-12T22:17:01.582Z,39.90
2023-02-12T22:19:29.553Z,37.50
2023-02-12T22:21:57.526Z,37.00
2023-02-12T22:24:25.450Z,38.40
2023-02-12T22:26:55.183Z,35.80
2023-02-12T22:29:23.923Z,39.20
2023-02-12T22:31:52.526Z,37.20
2023-02-12T22:34:20.686Z,38.50
2023-02-12T22:36:48.895Z,36.10
2023-02-12T22:39:17.765Z,37.60
2023-02-12T22:41:46.035Z,41.10
2023-02-12T22:44:15.331Z,41.60
2023-02-12T22:46:44.726Z,41.80
2023-02-12T22:49:13.070Z,43.80
2023-02-12T22:51:41.322Z,42.60
2023-02-12T22:54:14.949Z,38.90
2023-02-12T22:56:45.902Z,40.60
2023-02-12T22:59:14.493Z,37.80
2023-02-12T23:01:43.425Z,36.90
2023-02-12T23:04:16.955Z,36.20
2023-02-12T23:06:46.249Z,37.00
2023-02-12T23:09:16.764Z,34.80
2023-02-12T23:11:44.875Z,32.90
2023-02-12T23:14:13.868Z,32.00
2023-02-12T23:16:41.904Z,34.10
2023-02-12T23:19:11.110Z,33.70
2023-02-12T23:21:39.659Z,34.00
2023-02-12T23:24:07.910Z,34.70
2023-02-12T23:26:36.761Z,31.60
2023-02-12T23:29:04.659Z,28.70
2023-02-12T23:31:32.616Z,30.70
2023-02-12T23:34:00.665Z,30.60
2023-02-12T23:36:29.463Z,33.60
2023-02-12T23:38:59.473Z,34.20
2023-02-12T23:41:27.364Z,33.40
2023-02-12T23:43:55.348Z,33.30
2023-02-12T23:46:23.279Z,34.90
2023-02-12T23:48:51.239Z,38.30
2023-02-12T23:51:19.178Z,39.90
2023-02-12T23:53:47.042Z,37.20
2023-02-12T23:56:15.372Z,35.60
2023-02-12T23:58:43.239Z,37.10
